Melrose Park, Pennsylvania
Current Conditions -  °F | °C
As of 2:54 PM on Thursday 18 Dec 2014 (Local Time) from KPNE Reporting Station
Few Clouds Few Clouds  
Wind Chill: 30°   Ceiling: Unl
Heat Index: 40°   Visibility: 10mi
Dew Point: 22°   Wind: 20mph
Humidity: 49%   Direction: 300°WNW
Pressure: 30.02"   Gusts: 28mph
Location:  40.0732°N, 75.1248°W
Report Text: KPNE 181954Z AUTO 30017G24KT 10SM FEW041 04/M06 A3002 RMK AO2 PK WND 29026/1926 SLP167 T00441056 TSNO $
Loading
Personal Weather Stations






























Interactive Weather Map New forecast layout! Learn more

10-Day Weather Forecast

Advertisements
Track Severe Weather on mobile